Time;durP1;ratioP1;P1;durP2;ratioP2;P2;SDS_P1;SDS_P2;PMS_P1;PMS_P2;Temp;Humidity;BMP_temperature;BMP_pressure;BME280_temperature;BME280_humidity;BME280_pressure;Samples;Min_cycle;Max_cycle;Signal;HPM_P1;HPM_P2
2022/06/24 00:00:42;;;;;;;7.22;3.28;;;;;;;15.54;100.00;99979.59;6119604;23;20033;-56
2022/06/24 00:03:16;;;;;;;12.82;4.25;;;;;;;15.49;100.00;99987.50;6119412;23;20018;-54
2022/06/24 00:05:41;;;;;;;5.32;2.47;;;;;;;15.43;100.00;99973.22;6119518;23;20058;-46
2022/06/24 00:08:07;;;;;;;8.23;4.47;;;;;;;15.38;100.00;99974.97;6118952;23;20034;-51
2022/06/24 00:10:35;;;;;;;3.88;2.47;;;;;;;15.30;100.00;99968.13;6120512;23;20054;-55
2022/06/24 00:13:02;;;;;;;6.40;3.15;;;;;;;15.21;100.00;99972.22;6118831;23;20034;-52
2022/06/24 00:15:32;;;;;;;5.93;2.88;;;;;;;15.18;100.00;99965.47;6119428;23;20006;-53
2022/06/24 00:18:11;;;;;;;4.28;2.13;;;;;;;15.04;100.00;99954.22;6118971;23;20010;-52
2022/06/24 00:20:44;;;;;;;2.95;2.70;;;;;;;14.97;100.00;99961.53;6118291;23;20014;-51
2022/06/24 00:23:10;;;;;;;13.18;2.42;;;;;;;14.90;100.00;99966.19;6119442;23;20002;-56
2022/06/24 00:25:36;;;;;;;7.60;2.72;;;;;;;14.84;100.00;99972.44;6120918;23;20035;-55
2022/06/24 00:28:08;;;;;;;8.43;2.22;;;;;;;14.79;100.00;99974.97;6117414;23;20009;-52
2022/06/24 00:30:40;;;;;;;3.78;2.03;;;;;;;14.72;100.00;99966.28;6120334;23;20412;-55
2022/06/24 00:33:15;;;;;;;6.82;3.05;;;;;;;14.66;100.00;99967.19;6119763;23;20013;-55
2022/06/24 00:35:50;;;;;;;2.50;1.42;;;;;;;14.62;100.00;99961.50;6119681;23;20014;-55
2022/06/24 00:38:22;;;;;;;7.60;2.63;;;;;;;14.62;100.00;99961.50;6120679;23;20017;-57
2022/06/24 00:40:54;;;;;;;5.80;1.83;;;;;;;14.64;100.00;99961.28;6120422;23;20033;-57
2022/06/24 00:43:35;;;;;;;6.65;2.83;;;;;;;14.58;100.00;99965.66;6120483;23;20340;-55
2022/06/24 00:46:14;;;;;;;4.10;2.75;;;;;;;14.55;100.00;99958.13;6121803;23;20153;-53
2022/06/24 00:48:52;;;;;;;8.45;2.55;;;;;;;14.57;100.00;99956.06;6120679;23;20785;-52
2022/06/24 00:51:20;;;;;;;8.63;3.67;;;;;;;14.60;100.00;99963.59;6120647;23;20041;-50
2022/06/24 00:53:47;;;;;;;10.30;4.32;;;;;;;14.61;100.00;99960.72;6120912;23;20006;-51
2022/06/24 00:56:16;;;;;;;8.60;3.35;;;;;;;14.60;100.00;99959.06;6120898;23;20006;-53
2022/06/24 00:59:00;;;;;;;9.48;3.65;;;;;;;14.61;100.00;99955.38;6119969;23;20012;-48
2022/06/24 01:01:30;;;;;;;10.50;4.25;;;;;;;14.61;100.00;99951.88;6118711;23;20006;-50
2022/06/24 01:03:57;;;;;;;11.13;5.30;;;;;;;14.58;100.00;99953.13;6120846;23;20032;-55
2022/06/24 01:06:24;;;;;;;8.23;4.40;;;;;;;14.55;100.00;99955.47;6120488;23;20010;-47
2022/06/24 01:08:50;;;;;;;17.75;5.25;;;;;;;14.54;100.00;99953.84;6120164;23;20002;-57
2022/06/24 01:11:28;;;;;;;5.55;3.50;;;;;;;14.51;100.00;99951.63;6119372;23;20039;-56
2022/06/24 01:13:54;;;;;;;9.32;4.65;;;;;;;14.51;100.00;99951.63;6120930;23;20022;-55
2022/06/24 01:16:21;;;;;;;5.28;3.80;;;;;;;14.49;100.00;99941.16;6120595;23;20009;-52
2022/06/24 01:18:53;;;;;;;13.40;5.15;;;;;;;14.49;100.00;99954.50;6119719;23;20101;-52
2022/06/24 01:21:34;;;;;;;9.98;4.78;;;;;;;14.48;100.00;99950.22;6118132;23;20034;-52
2022/06/24 01:24:07;;;;;;;9.47;4.10;;;;;;;14.50;100.00;99950.78;6120254;23;20002;-50
2022/06/24 01:26:37;;;;;;;6.07;3.97;;;;;;;14.49;100.00;99954.50;6117521;23;20024;-56
2022/06/24 01:29:03;;;;;;;11.35;4.88;;;;;;;14.47;100.00;99948.59;6119861;23;20014;-56
2022/06/24 01:31:28;;;;;;;9.23;5.28;;;;;;;14.44;100.00;99946.38;6120469;23;20018;-50
2022/06/24 01:33:53;;;;;;;6.00;4.72;;;;;;;14.48;100.00;99950.22;6120621;23;20002;-50
2022/06/24 01:36:19;;;;;;;7.40;3.95;;;;;;;14.47;100.00;99937.91;6117529;23;20388;-51
2022/06/24 01:38:45;;;;;;;11.35;5.70;;;;;;;14.43;100.00;99935.94;6120274;23;20336;-51
2022/06/24 01:41:10;;;;;;;12.02;5.15;;;;;;;14.44;100.00;99933.03;6120731;23;20233;-52
2022/06/24 01:43:35;;;;;;;6.95;4.13;;;;;;;14.46;100.00;99930.16;6119273;23;20053;-50
2022/06/24 01:46:01;;;;;;;12.55;5.30;;;;;;;14.47;100.00;99926.44;6121065;23;20018;-55
2022/06/24 01:48:26;;;;;;;14.05;5.40;;;;;;;14.46;100.00;99922.97;6120696;23;20404;-50
2022/06/24 01:50:52;;;;;;;10.90;4.93;;;;;;;14.45;100.00;99913.31;6119157;23;20010;-53
2022/06/24 01:53:17;;;;;;;6.75;4.43;;;;;;;14.49;100.00;99914.50;6118434;23;20009;-54
2022/06/24 01:55:43;;;;;;;8.60;5.00;;;;;;;14.51;100.00;99916.94;6120729;23;20010;-54
2022/06/24 01:58:08;;;;;;;8.73;4.82;;;;;;;14.52;100.00;99911.34;6119478;23;20009;-55
2022/06/24 02:00:34;;;;;;;8.50;4.88;;;;;;;14.51;100.00;99909.75;6120224;23;20017;-56
2022/06/24 02:03:03;;;;;;;9.30;5.45;;;;;;;14.51;100.00;99898.28;6119153;23;20009;-52
2022/06/24 02:05:30;;;;;;;7.93;4.97;;;;;;;14.51;100.00;99892.94;6120463;23;20030;-52
2022/06/24 02:07:55;;;;;;;10.27;5.20;;;;;;;14.50;100.00;99894.75;6118644;23;20002;-53
2022/06/24 02:15:49;;;;;;;11.27;4.72;;;;;;;14.48;100.00;99886.19;6119490;23;20100;-54
2022/06/24 02:18:15;;;;;;;13.50;6.93;;;;;;;14.49;100.00;99882.47;6117512;23;20449;-53
2022/06/24 02:20:40;;;;;;;23.50;7.18;;;;;;;14.52;100.00;99887.34;6119974;23;20069;-51
2022/06/24 02:23:05;;;;;;;16.10;8.98;;;;;;;14.51;100.00;99891.06;6117697;23;20147;-50
2022/06/24 02:25:31;;;;;;;15.07;7.47;;;;;;;14.48;100.00;99883.53;6119937;23;20009;-54
2022/06/24 02:27:56;;;;;;;21.67;9.23;;;;;;;14.49;100.00;99887.00;6120408;23;20010;-49
2022/06/24 02:30:21;;;;;;;13.40;8.13;;;;;;;14.48;100.00;99885.38;6118305;23;20428;-52
2022/06/24 02:32:47;;;;;;;14.63;8.65;;;;;;;14.49;100.00;99885.16;6120044;23;20315;-48
2022/06/24 02:35:12;;;;;;;16.13;8.65;;;;;;;14.49;100.00;99879.81;6118390;23;20034;-55
2022/06/24 02:37:38;;;;;;;20.42;8.63;;;;;;;14.49;100.00;99871.81;6118154;23;20017;-54
2022/06/24 02:40:45;;;;;;;14.93;9.55;;;;;;;14.47;100.00;99878.44;6119855;23;20006;-57
2022/06/24 02:42:56;;;;;;;16.73;8.55;;;;;;;14.46;100.00;99874.13;6117155;23;20024;-54
2022/06/24 02:45:22;;;;;;;15.52;8.75;;;;;;;14.46;100.00;99877.63;6120202;23;20006;-56
2022/06/24 02:47:47;;;;;;;19.75;10.48;;;;;;;14.47;100.00;99873.09;6117115;23;20056;-56
2022/06/24 02:50:13;;;;;;;17.08;9.77;;;;;;;14.47;100.00;99873.91;6119418;23;20021;-54
2022/06/24 02:52:38;;;;;;;13.20;7.28;;;;;;;14.49;100.00;99866.47;6120419;23;20016;-54
2022/06/24 02:55:04;;;;;;;20.48;9.00;;;;;;;14.50;100.00;99868.09;6118690;23;20459;-53
2022/06/24 02:57:29;;;;;;;20.27;9.23;;;;;;;14.51;100.00;99864.41;6118711;23;20014;-55
2022/06/24 02:59:55;;;;;;;13.10;7.45;;;;;;;14.52;100.00;99854.53;6120329;23;20016;-52
2022/06/24 03:02:20;;;;;;;12.93;8.05;;;;;;;14.52;100.00;99847.34;6119231;23;20088;-53
2022/06/24 03:04:45;;;;;;;15.15;8.32;;;;;;;14.53;100.00;99846.34;6118227;23;20014;-49
2022/06/24 03:07:11;;;;;;;17.98;10.27;;;;;;;14.55;100.00;99860.25;6120008;23;20017;-52
2022/06/24 03:09:36;;;;;;;13.10;8.38;;;;;;;14.56;100.00;99853.88;6119211;23;20033;-51
2022/06/24 03:12:02;;;;;;;14.27;10.10;;;;;;;14.55;100.00;99854.09;6119133;23;20014;-56
2022/06/24 03:14:28;;;;;;;15.18;8.90;;;;;;;14.55;100.00;99854.09;6120614;23;20069;-55
2022/06/24 03:16:53;;;;;;;15.52;8.68;;;;;;;14.54;100.00;99850.63;6119275;23;20010;-50
2022/06/24 03:19:18;;;;;;;14.85;8.23;;;;;;;14.55;100.00;99846.91;6119903;23;20010;-57
2022/06/24 03:21:44;;;;;;;13.60;8.57;;;;;;;14.56;100.00;99842.38;6119448;23;20384;-46
2022/06/24 03:24:09;;;;;;;12.20;8.38;;;;;;;14.58;100.00;99838.44;6117779;23;20080;-52
2022/06/24 03:26:35;;;;;;;11.30;6.63;;;;;;;14.55;100.00;99832.75;6119305;23;20519;-53
2022/06/24 03:29:00;;;;;;;11.70;6.78;;;;;;;14.53;100.00;99841.00;6118623;23;20018;-51
2022/06/24 03:31:26;;;;;;;14.27;6.60;;;;;;;14.53;100.00;99825.00;6120124;23;20009;-52
2022/06/24 03:33:51;;;;;;;11.95;6.60;;;;;;;14.56;100.00;99826.38;6119832;23;20014;-50
2022/06/24 03:36:16;;;;;;;12.10;5.57;;;;;;;14.54;100.00;99825.81;6117587;23;20013;-49
2022/06/24 03:38:42;;;;;;;10.13;6.38;;;;;;;14.54;100.00;99826.63;6118879;23;20228;-55
2022/06/24 03:41:07;;;;;;;9.77;5.47;;;;;;;14.49;100.00;99826.47;6119832;23;20404;-54
2022/06/24 03:43:33;;;;;;;12.20;6.05;;;;;;;14.49;100.00;99813.13;6117598;23;20021;-53
2022/06/24 03:46:02;;;;;;;7.22;4.00;;;;;;;14.52;100.00;99814.53;6120294;23;20046;-49
2022/06/24 03:48:29;;;;;;;9.60;5.72;;;;;;;14.50;100.00;99821.94;6117911;23;20064;-50
2022/06/24 03:50:54;;;;;;;7.35;5.20;;;;;;;14.50;100.00;99819.28;6117862;23;20013;-50
2022/06/24 03:53:20;;;;;;;7.95;5.05;;;;;;;14.53;100.00;99818.84;6115898;23;20309;-50
2022/06/24 03:55:52;;;;;;;8.90;5.13;;;;;;;14.55;100.00;99817.56;6118669;23;20041;-51
2022/06/24 03:58:18;;;;;;;8.18;5.10;;;;;;;14.55;100.00;99822.88;6119363;23;20010;-50
2022/06/24 04:00:44;;;;;;;8.35;4.88;;;;;;;14.53;100.00;99821.50;6118991;23;20093;-49
2022/06/24 04:03:09;;;;;;;12.50;6.50;;;;;;;14.54;100.00;99823.13;6119978;23;20410;-50
2022/06/24 04:05:35;;;;;;;7.50;5.13;;;;;;;14.53;100.00;99818.84;6120813;23;20392;-55
2022/06/24 04:08:00;;;;;;;10.45;3.70;;;;;;;14.53;100.00;99822.34;6119704;23;20040;-53
2022/06/24 04:10:26;;;;;;;4.57;3.63;;;;;;;14.52;100.00;99820.66;6120541;23;20443;-53
2022/06/24 04:12:51;;;;;;;5.28;3.78;;;;;;;14.52;100.00;99811.84;6119236;23;20009;-54
2022/06/24 04:15:18;;;;;;;11.63;5.55;;;;;;;14.51;100.00;99819.06;6120018;23;20010;-50
2022/06/24 04:17:45;;;;;;;6.28;5.25;;;;;;;14.52;100.00;99822.53;6120711;23;20010;-53
2022/06/24 04:20:11;;;;;;;8.98;5.32;;;;;;;14.52;100.00;99823.31;6119428;23;20002;-53
2022/06/24 04:22:37;;;;;;;10.10;4.68;;;;;;;14.53;100.00;99818.84;6119605;23;20006;-54
2022/06/24 04:25:03;;;;;;;10.23;5.10;;;;;;;14.52;100.00;99822.53;6118889;23;19998;-54
2022/06/24 04:27:28;;;;;;;6.55;4.15;;;;;;;14.49;100.00;99813.13;6120290;23;20016;-49
2022/06/24 04:30:02;;;;;;;4.60;4.10;;;;;;;14.48;100.00;99816.84;6118965;23;20006;-55
2022/06/24 04:32:27;;;;;;;4.32;3.35;;;;;;;14.46;100.00;99821.59;6121013;23;20014;-50
2022/06/24 04:34:53;;;;;;;9.73;5.15;;;;;;;14.44;100.00;99814.88;6120280;23;20012;-53
2022/06/24 04:37:18;;;;;;;6.93;3.33;;;;;;;14.43;100.00;99823.91;6120751;23;20010;-49
2022/06/24 04:39:44;;;;;;;9.20;3.67;;;;;;;14.39;100.00;99819.03;6121016;23;20092;-55
2022/06/24 04:42:10;;;;;;;9.05;3.65;;;;;;;14.37;100.00;99820.31;6119877;23;20339;-57
2022/06/24 04:44:35;;;;;;;8.50;3.80;;;;;;;14.40;100.00;99812.69;6120492;23;20026;-55
2022/06/24 04:47:01;;;;;;;4.28;2.45;;;;;;;14.42;100.00;99812.44;6120793;23;20014;-52
2022/06/24 04:49:26;;;;;;;6.60;2.72;;;;;;;14.41;100.00;99805.47;6120646;23;19998;-49
2022/06/24 04:51:52;;;;;;;5.15;3.00;;;;;;;14.38;100.00;99811.28;6120873;23;20158;-47
2022/06/24 04:54:17;;;;;;;8.90;2.53;;;;;;;14.36;100.00;99810.72;6120666;23;20010;-52
2022/06/24 04:56:43;;;;;;;8.13;2.88;;;;;;;14.37;100.00;99798.97;6119765;23;20040;-48
2022/06/24 04:59:08;;;;;;;9.00;2.45;;;;;;;14.33;100.00;99795.16;6120810;23;20388;-55
2022/06/24 05:01:33;;;;;;;4.78;2.28;;;;;;;14.30;100.00;99798.28;6119120;23;20014;-52
2022/06/24 05:04:00;;;;;;;1.90;1.80;;;;;;;14.29;100.00;99791.34;6120750;23;20397;-50
2022/06/24 05:06:25;;;;;;;4.65;1.98;;;;;;;14.28;100.00;99795.06;6120659;23;20006;-51
2022/06/24 05:08:51;;;;;;;4.00;2.20;;;;;;;14.21;100.00;99791.69;6120316;23;20010;-52
2022/06/24 05:11:16;;;;;;;4.90;2.60;;;;;;;14.17;100.00;99788.66;6118894;23;20320;-54
2022/06/24 05:13:42;;;;;;;2.72;2.45;;;;;;;14.17;100.00;99786.00;6121062;23;20028;-51
2022/06/24 05:16:07;;;;;;;6.72;2.95;;;;;;;14.18;100.00;99790.28;6120844;23;20148;-49
2022/06/24 05:18:33;;;;;;;3.15;2.30;;;;;;;14.20;100.00;99796.22;6117295;23;20444;-52
2022/06/24 05:20:58;;;;;;;7.05;2.58;;;;;;;14.24;100.00;99793.88;6118755;23;20089;-52
2022/06/24 05:23:23;;;;;;;2.88;1.45;;;;;;;14.28;100.00;99795.06;6118813;23;20010;-51
2022/06/24 05:25:49;;;;;;;1.55;1.27;;;;;;;14.26;100.00;99799.81;6119115;23;20016;-49
2022/06/24 05:28:14;;;;;;;5.78;1.95;;;;;;;14.26;100.00;99795.28;6118635;23;20014;-53
2022/06/24 05:30:39;;;;;;;2.08;1.13;;;;;;;14.29;100.00;99796.66;6118820;23;20076;-53
2022/06/24 05:33:05;;;;;;;1.45;1.25;;;;;;;14.35;100.00;99806.41;6117704;23;20097;-50
2022/06/24 05:35:30;;;;;;;7.68;2.42;;;;;;;14.37;100.00;99793.66;6119122;23;20013;-53
2022/06/24 05:37:56;;;;;;;8.95;2.08;;;;;;;14.32;100.00;99791.66;6117817;23;20037;-50
2022/06/24 05:40:21;;;;;;;3.72;1.10;;;;;;;14.37;100.00;99798.97;6119656;23;20076;-55
2022/06/24 05:42:46;;;;;;;8.57;1.70;;;;;;;14.46;100.00;99802.13;6116304;23;20018;-55
2022/06/24 05:45:12;;;;;;;5.15;2.50;;;;;;;14.45;100.00;99803.97;6118372;23;20085;-54
2022/06/24 05:47:37;;;;;;;4.68;1.90;;;;;;;14.44;100.00;99801.53;6118299;23;20014;-53
2022/06/24 05:50:03;;;;;;;2.08;1.08;;;;;;;14.40;100.00;99801.19;6119257;23;20332;-54
2022/06/24 05:55:12;;;;;;;1.95;1.67;;;;;;;14.34;100.00;99804.78;6118814;23;20024;-57
2022/06/24 05:57:38;;;;;;;4.20;1.77;;;;;;;14.40;100.00;99796.69;6120257;23;20081;-52
2022/06/24 06:00:04;;;;;;;2.78;1.30;;;;;;;14.43;100.00;99795.41;6120293;23;20058;-50
2022/06/24 06:02:29;;;;;;;1.60;1.48;;;;;;;14.47;100.00;99793.88;6119497;23;20018;-53
2022/06/24 06:04:55;;;;;;;5.57;2.33;;;;;;;14.48;100.00;99784.00;6118321;23;20040;-52
2022/06/24 06:07:20;;;;;;;6.75;2.42;;;;;;;14.53;100.00;99792.16;6115831;23;20356;-51
2022/06/24 06:09:45;;;;;;;7.93;3.25;;;;;;;14.57;100.00;99786.13;6118625;23;20013;-45
2022/06/24 06:12:11;;;;;;;2.47;1.52;;;;;;;14.60;100.00;99793.66;6118471;23;20076;-49
2022/06/24 06:14:36;;;;;;;3.78;2.47;;;;;;;14.59;100.00;99784.03;6118182;23;20014;-50
2022/06/24 06:17:02;;;;;;;5.10;3.15;;;;;;;14.60;100.00;99785.66;6115912;23;20052;-47
2022/06/24 06:19:28;;;;;;;4.88;1.60;;;;;;;14.65;100.00;99792.16;6115180;23;20018;-50
2022/06/24 06:21:53;;;;;;;4.30;1.73;;;;;;;14.73;100.00;99789.94;6115766;23;20014;-50
2022/06/24 06:24:18;;;;;;;2.80;1.48;;;;;;;14.75;100.00;99784.38;6112381;23;20316;-49
2022/06/24 06:26:44;;;;;;;4.95;1.67;;;;;;;14.83;100.00;99794.66;6118479;23;20416;-50
2022/06/24 06:29:09;;;;;;;10.20;1.67;;;;;;;14.92;100.00;99792.44;6117975;23;20016;-49
2022/06/24 06:31:34;;;;;;;3.20;1.80;;;;;;;14.95;100.00;99782.13;6116721;23;20775;-51
2022/06/24 06:34:00;;;;;;;5.93;1.52;;;;;;;15.00;100.00;99781.41;6119798;23;20013;-56
2022/06/24 06:36:25;;;;;;;8.63;2.00;;;;;;;14.97;100.00;99772.03;6117387;23;20451;-51
2022/06/24 06:38:50;;;;;;;2.67;1.88;;;;;;;15.04;100.00;99772.66;6117642;23;20022;-53
2022/06/24 06:41:19;;;;;;;4.13;1.85;;;;;;;15.04;100.00;99769.19;6116138;23;20044;-51
2022/06/24 06:43:45;;;;;;;3.10;2.10;;;;;;;15.03;100.00;99770.25;6117307;23;20014;-52
2022/06/24 06:46:11;;;;;;;8.43;2.75;;;;;;;15.04;100.00;99770.00;6116505;23;20017;-53
2022/06/24 06:48:37;;;;;;;7.22;2.00;;;;;;;15.06;100.00;99775.13;6114985;23;20024;-53
2022/06/24 06:51:02;;;;;;;4.05;2.33;;;;;;;15.13;100.00;99783.00;6112268;23;20041;-54
2022/06/24 06:53:28;;;;;;;3.72;1.75;;;;;;;15.20;100.00;99780.97;6114172;23;20052;-52
2022/06/24 06:55:55;;;;;;;5.40;1.58;;;;;;;15.30;100.00;99775.81;6113798;23;20001;-49
2022/06/24 06:58:24;;;;;;;3.15;2.13;;;;;;;15.46;100.00;99772.41;6116713;23;20014;-54
2022/06/24 07:00:50;;;;;;;4.20;2.30;;;;;;;15.46;100.00;99779.56;6117135;23;20021;-49
2022/06/24 07:03:16;;;;;;;7.18;1.98;;;;;;;15.42;100.00;99778.44;6117700;23;20030;-50
2022/06/24 07:05:44;;;;;;;4.78;2.15;;;;;;;15.48;100.00;99780.16;6116414;23;20006;-52
2022/06/24 07:08:11;;;;;;;3.17;1.90;;;;;;;15.59;100.00;99778.47;6115454;23;20014;-49
2022/06/24 07:10:40;;;;;;;8.25;2.25;;;;;;;15.68;100.00;99774.34;6117764;23;20025;-51
2022/06/24 07:13:05;;;;;;;1.63;1.25;;;;;;;15.73;100.00;99769.13;6117990;23;20383;-47
2022/06/24 07:15:30;;;;;;;5.47;1.30;;;;;;;15.97;100.00;99763.63;6118796;23;20041;-51
2022/06/24 07:17:56;;;;;;;8.05;2.13;;;;;;;16.04;100.00;99764.28;6114682;23;20217;-51
2022/06/24 07:20:21;;;;;;;6.65;1.50;;;;;;;16.17;100.00;99763.13;6117999;23;20009;-49
2022/06/24 07:22:46;;;;;;;4.65;1.73;;;;;;;16.19;100.00;99761.84;6114208;23;20459;-54
2022/06/24 07:25:12;;;;;;;4.30;1.45;;;;;;;16.15;100.00;99760.69;6115062;23;20017;-50
2022/06/24 07:27:37;;;;;;;4.40;1.92;;;;;;;16.19;100.00;99764.50;6115230;23;20016;-50
2022/06/24 07:30:04;;;;;;;3.05;1.95;;;;;;;16.31;100.00;99764.38;6116843;23;20006;-51
2022/06/24 07:32:29;;;;;;;3.15;1.63;;;;;;;16.32;100.00;99760.69;6118590;23;20013;-53
2022/06/24 07:34:54;;;;;;;6.82;3.17;;;;;;;16.47;100.00;99762.72;6118617;23;20446;-56
2022/06/24 07:37:20;;;;;;;3.78;2.10;;;;;;;16.45;100.00;99754.97;6120645;23;20123;-50
2022/06/24 07:39:45;;;;;;;2.83;1.73;;;;;;;16.41;100.00;99763.72;6118247;23;20013;-51
2022/06/24 07:42:11;;;;;;;2.50;2.00;;;;;;;16.64;100.00;99763.50;6120013;23;20439;-52
2022/06/24 07:44:40;;;;;;;3.67;2.50;;;;;;;16.81;100.00;99763.47;6117824;23;20446;-51
2022/06/24 07:47:05;;;;;;;2.72;1.73;;;;;;;16.79;100.00;99758.38;6121753;23;20006;-51
2022/06/24 07:49:31;;;;;;;2.60;1.70;;;;;;;16.82;100.00;99761.59;6120550;23;20344;-50
2022/06/24 07:51:56;;;;;;;6.35;2.35;;;;;;;16.84;100.00;99751.47;6120647;23;20009;-48
2022/06/24 07:54:24;;;;;;;1.65;1.25;;;;;;;16.78;100.00;99747.94;6120090;23;20002;-47
2022/06/24 07:56:58;;;;;;;3.72;1.83;;;;;;;16.95;100.00;99748.63;6118447;23;20012;-51
2022/06/24 07:59:29;;;;;;;3.03;1.45;;;;;;;16.98;100.00;99736.63;6119785;23;20018;-47
2022/06/24 08:01:55;;;;;;;5.97;2.45;;;;;;;16.93;100.00;99744.59;6120491;23;20006;-50
2022/06/24 08:04:23;;;;;;;3.10;1.83;;;;;;;17.06;100.00;99741.53;6120128;23;20014;-47
2022/06/24 08:06:52;;;;;;;4.03;1.33;;;;;;;17.09;100.00;99740.22;6120679;23;20014;-52
2022/06/24 08:09:19;;;;;;;4.78;2.50;;;;;;;17.39;100.00;99729.00;6121454;23;20009;-50
2022/06/24 08:11:45;;;;;;;2.85;1.33;;;;;;;17.84;100.00;99728.59;6120426;23;20025;-53
2022/06/24 08:14:10;;;;;;;5.60;1.77;;;;;;;17.98;100.00;99734.31;6120237;23;20434;-50
2022/06/24 08:16:36;;;;;;;3.30;1.63;;;;;;;17.66;100.00;99728.97;6120515;23;20013;-47
2022/06/24 08:19:02;;;;;;;3.70;2.13;;;;;;;17.49;100.00;99734.44;6120460;23;20029;-49
2022/06/24 08:21:28;;;;;;;1.90;1.33;;;;;;;17.45;100.00;99738.72;6120770;23;20347;-54
2022/06/24 08:23:53;;;;;;;1.10;0.95;;;;;;;17.51;100.00;99728.84;6118823;23;20050;-46
2022/06/24 08:26:19;;;;;;;2.22;0.50;;;;;;;17.51;100.00;99724.28;6121068;23;20014;-48
2022/06/24 08:28:45;;;;;;;3.25;1.23;;;;;;;17.82;100.00;99721.88;6119321;23;20312;-47
2022/06/24 08:31:11;;;;;;;3.78;1.50;;;;;;;17.95;100.00;99723.31;6120482;23;20002;-47
2022/06/24 08:33:36;;;;;;;1.83;1.20;;;;;;;18.07;100.00;99721.22;6120635;23;20010;-50
2022/06/24 08:36:03;;;;;;;5.57;1.42;;;;;;;18.02;100.00;99722.03;6121087;23;20010;-51
2022/06/24 08:38:28;;;;;;;2.35;0.90;;;;;;;18.05;100.00;99724.19;6120370;23;20045;-54
2022/06/24 08:40:54;;;;;;;3.75;1.10;;;;;;;18.09;100.00;99719.09;6119184;23;20439;-46
2022/06/24 08:43:23;;;;;;;2.78;1.58;;;;;;;18.11;100.00;99726.91;6120927;23;20444;-48
2022/06/24 08:45:49;;;;;;;5.13;1.63;;;;;;;18.04;100.00;99721.75;6119990;23;20038;-50
2022/06/24 08:48:15;;;;;;;4.22;0.47;;;;;;;18.09;100.00;99719.91;6119736;23;20014;-49
2022/06/24 08:50:41;;;;;;;1.80;0.60;;;;;;;18.29;100.00;99713.06;6120323;23;20012;-53
2022/06/24 08:53:09;;;;;;;6.28;0.52;;;;;;;18.47;100.00;99703.75;6120362;23;20037;-50
2022/06/24 08:55:40;;;;;;;1.85;0.75;;;;;;;18.64;100.00;99714.28;6120811;23;20029;-52
2022/06/24 08:58:10;;;;;;;0.52;0.52;;;;;;;18.65;100.00;99702.47;6119322;23;20010;-47
2022/06/24 09:00:37;;;;;;;2.97;0.85;;;;;;;18.59;100.00;99701.66;6120805;23;20081;-52
2022/06/24 09:03:06;;;;;;;2.28;0.90;;;;;;;18.50;100.00;99709.38;6120625;23;20033;-52
2022/06/24 09:05:32;;;;;;;1.00;0.57;;;;;;;18.46;100.00;99704.81;6120397;23;20065;-48
2022/06/24 09:08:06;;;;;;;0.50;0.40;;;;;;;18.52;100.00;99701.88;6121026;23;20010;-45
2022/06/24 09:10:32;;;;;;;3.33;0.70;;;;;;;18.87;100.00;99703.13;6119479;23;20018;-51
2022/06/24 09:12:58;;;;;;;3.10;1.35;;;;;;;19.13;100.00;99700.50;6120630;23;20455;-50
2022/06/24 09:15:24;;;;;;;5.00;1.40;;;;;;;19.68;100.00;99696.25;6119154;23;20295;-49
2022/06/24 09:17:50;;;;;;;2.10;0.82;;;;;;;19.61;100.00;99690.28;6121144;23;20014;-51
2022/06/24 09:20:19;;;;;;;4.28;1.10;;;;;;;19.50;100.00;99677.94;6120722;23;20032;-47
2022/06/24 09:22:45;;;;;;;1.42;0.60;;;;;;;18.96;100.00;99679.22;6121245;23;20360;-48
2022/06/24 09:25:11;;;;;;;0.35;0.35;;;;;;;18.88;100.00;99682.44;6120373;23;20006;-53
2022/06/24 09:27:43;;;;;;;4.45;1.10;;;;;;;19.10;100.00;99682.19;6121820;23;20033;-50
2022/06/24 09:30:11;;;;;;;0.73;0.73;;;;;;;19.20;100.00;99679.53;6118623;23;20010;-54
2022/06/24 09:32:50;;;;;;;2.10;0.88;;;;;;;19.35;100.00;99676.84;6120102;23;20001;-53
2022/06/24 09:35:15;;;;;;;2.22;0.98;;;;;;;19.73;100.00;99677.41;6119375;23;20407;-52
2022/06/24 09:37:44;;;;;;;3.03;0.52;;;;;;;20.23;100.00;99662.22;6119147;23;20018;-53
2022/06/24 09:40:21;;;;;;;1.13;0.50;;;;;;;20.72;100.00;99657.97;6119401;23;20010;-51
2022/06/24 09:42:53;;;;;;;1.13;1.05;;;;;;;21.08;100.00;99663.94;6117774;23;20332;-56
2022/06/24 09:45:18;;;;;;;;;;;;;;;21.18;100.00;99664.97;6121402;23;20021;-57
2022/06/24 09:47:48;;;;;;;6.32;0.77;;;;;;;21.02;100.00;99664.28;6120948;23;19913;-51
2022/06/24 09:50:14;;;;;;;4.90;0.43;;;;;;;20.51;100.00;99653.78;6121032;23;20057;-49
2022/06/24 09:52:40;;;;;;;1.63;0.60;;;;;;;20.45;100.00;99659.19;6120720;23;20304;-49
2022/06/24 09:55:06;;;;;;;2.13;0.93;;;;;;;20.56;100.00;99656.47;6120766;23;20400;-53
2022/06/24 09:57:32;;;;;;;5.35;0.80;;;;;;;20.45;100.00;99650.31;6119735;23;20002;-50
2022/06/24 10:02:43;;;;;;;3.20;0.75;;;;;;;20.22;100.00;99647.16;6121134;23;20017;-49
2022/06/24 10:05:11;;;;;;;2.38;0.55;;;;;;;20.40;100.00;99644.94;6120393;23;20006;-51
2022/06/24 10:07:39;;;;;;;2.58;0.90;;;;;;;20.55;100.00;99644.06;6117901;23;20014;-49
2022/06/24 10:10:06;;;;;;;1.27;0.70;;;;;;;20.60;100.00;99649.44;6121251;23;20505;-51
2022/06/24 10:12:35;;;;;;;2.55;0.50;;;;;;;20.63;100.00;99635.44;6118463;23;20037;-48
2022/06/24 10:15:01;;;;;;;1.52;0.82;;;;;;;20.66;100.00;99641.06;6119513;23;20061;-48
2022/06/24 10:17:29;;;;;;;1.15;0.63;;;;;;;20.61;100.00;99635.69;6118932;23;20365;-52
2022/06/24 10:19:55;;;;;;;1.00;0.63;;;;;;;20.31;100.00;99643.88;6120633;23;20010;-46
2022/06/24 10:22:44;;;;;;;1.90;0.85;;;;;;;19.93;100.00;99640.78;6120240;23;20077;-49
2022/06/24 10:25:10;;;;;;;3.75;0.93;;;;;;;19.64;100.00;99640.53;6119876;23;20340;-48
2022/06/24 10:27:57;;;;;;;4.30;1.75;;;;;;;19.38;100.00;99648.63;6119835;23;20347;-45
2022/06/24 10:30:41;;;;;;;1.77;1.00;;;;;;;19.23;100.00;99641.38;6121085;23;20013;-45
2022/06/24 10:33:14;;;;;;;1.92;0.75;;;;;;;19.07;100.00;99642.44;6119019;23;20036;-49
2022/06/24 10:36:02;;;;;;;1.50;0.77;;;;;;;19.04;100.00;99637.59;6119048;23;20093;-49
2022/06/24 10:38:39;;;;;;;2.00;0.90;;;;;;;19.03;100.00;99650.25;6120916;23;20014;-47
2022/06/24 10:41:06;;;;;;;2.88;1.15;;;;;;;19.03;100.00;99644.06;6120983;23;20007;-56
2022/06/24 10:43:34;;;;;;;1.83;0.80;;;;;;;19.03;100.00;99646.75;6120317;23;20025;-45
2022/06/24 10:46:18;;;;;;;2.63;0.63;;;;;;;18.88;100.00;99647.53;6120376;23;20006;-53
2022/06/24 10:48:43;;;;;;;2.92;0.95;;;;;;;18.86;100.00;99652.34;6120770;23;20029;-52
2022/06/24 10:51:20;;;;;;;4.10;0.80;;;;;;;18.79;100.00;99647.22;6119193;23;20009;-46
2022/06/24 10:54:09;;;;;;;4.13;1.10;;;;;;;18.64;100.00;99649.84;6120689;23;20313;-52
2022/06/24 10:56:50;;;;;;;2.95;0.70;;;;;;;18.58;100.00;99653.59;6121433;23;20090;-51
2022/06/24 10:59:19;;;;;;;0.90;0.90;;;;;;;18.99;100.00;99656.41;6120004;23;20073;-49
2022/06/24 11:01:47;;;;;;;3.78;1.60;;;;;;;19.54;100.00;99647.56;6118213;23;20435;-48
2022/06/24 11:04:21;;;;;;;5.63;0.75;;;;;;;19.90;100.00;99644.81;6118483;23;20041;-47
2022/06/24 11:07:25;;;;;;;2.28;1.05;;;;;;;20.27;100.00;99632.88;6118044;23;20352;-51
2022/06/24 11:09:50;;;;;;;1.40;1.05;;;;;;;20.63;100.00;99636.22;6001145;23;20026;-50
2022/06/24 11:12:29;;;;;;;0.70;0.70;;;;;;;20.92;100.00;99635.50;6001739;23;20012;-47
2022/06/24 11:14:55;;;;;;;4.45;1.88;;;;;;;20.80;100.00;99633.16;6065733;23;20021;-52
2022/06/24 11:17:24;;;;;;;1.92;0.70;;;;;;;20.42;100.00;99637.38;6118302;23;20010;-53
2022/06/24 11:19:51;;;;;;;2.55;0.60;;;;;;;20.16;100.00;99636.66;6119479;23;20092;-51
2022/06/24 11:22:17;;;;;;;2.95;1.20;;;;;;;19.97;100.00;99633.78;6119246;23;20462;-50
2022/06/24 11:24:47;;;;;;;3.65;0.75;;;;;;;19.95;100.00;99625.16;6118471;23;20085;-50
2022/06/24 11:27:12;;;;;;;2.45;1.48;;;;;;;19.97;100.00;99628.41;6119476;23;20005;-49
2022/06/24 11:29:51;;;;;;;2.83;1.23;;;;;;;20.17;100.00;99617.56;6119681;23;20097;-50
2022/06/24 11:32:16;;;;;;;3.47;0.95;;;;;;;20.47;100.00;99615.81;6118863;23;20085;-49
2022/06/24 11:34:43;;;;;;;0.77;0.75;;;;;;;20.65;100.00;99609.00;6119939;23;20292;-52
2022/06/24 11:37:09;;;;;;;2.30;0.88;;;;;;;20.79;100.00;99603.81;6118559;23;20336;-53